Observations for BIRMINGHAM AIRPORT, United Kingdom (EGBB)

EGBB 201950Z 20011KT CAVOK 09/07 Q1018  
EGBB 201920Z 20008KT 9999 FEW018 09/07 Q1018
EGBB 201850Z 20011KT 170V240 9999 FEW018 10/07 Q1018
EGBB 201820Z 20008KT 9999 FEW020 10/07 Q1018
EGBB 201750Z 19008KT 9999 FEW030 10/06 Q1018
EGBB 201720Z 19008KT 9999 FEW012 11/07 Q1017
EGBB 201650Z 20009KT 9999 FEW032 11/07 Q1017
EGBB 201620Z 20008KT 160V240 9999 -SHRA FEW032 11/07 Q1017  
EGBB 201550Z 20008KT 170V240 9999 FEW032 11/06 Q1017
EGBB 201520Z 21008KT 170V260 9999 SCT032 11/06 Q1017
EGBB 201450Z 21009KT 140V250 9999 FEW027 SCT039 11/06 Q1017 
EGBB 201420Z 21009KT 170V250 9999 FEW027 11/06 Q1017
EGBB 201350Z 20009KT 160V240 9999 SCT026 11/06 Q1017
EGBB 201320Z 20008KT 170V250 9999 SCT027 11/06 Q1017
EGBB 201250Z 21010KT 180V240 9999 FEW024 SCT029 11/06 Q1017 
EGBB 201220Z 21008KT 190V250 9999 SCT022 BKN033 11/06 Q1017 
EGBB 201150Z 21009KT 170V240 9999 BKN019 BKN030 11/07 Q1017 
EGBB 201120Z 21008KT 180V250 9999 BKN019 10/06 Q1017
EGBB 201050Z 22008KT 180V260 9999 BKN016 10/07 Q1017
EGBB 201020Z 22007KT 180V250 9999 BKN016 10/07 Q1017
EGBB 200950Z 21010KT 180V240 9999 BKN014 10/07 Q1017
EGBB 200920Z 20011KT 180V240 9999 FEW015 09/07 Q1016
EGBB 200850Z 20013KT CAVOK 09/06 Q1016  
EGBB 200820Z 20010KT 170V240 CAVOK 08/06 Q1016  
EGBB 200750Z 20009KT CAVOK 08/06 Q1015  
EGBB 200720Z 20008KT 170V250 CAVOK 08/06 Q1015  
EGBB 200650Z 21007KT 170V250 9999 FEW014 08/06 Q1015
EGBB 200620Z 21007KT 170V240 9999 FEW015 08/06 Q1015
EGBB 200550Z 21007KT 9999 FEW015 08/06 Q1015
EGBB 200520Z 20008KT 9999 FEW045 08/06 Q1015
EGBB 200450Z 20008KT 170V250 9999 FEW015 SCT027 08/06 Q1015 
EGBB 200420Z 20010KT 160V230 9999 FEW016 08/06 Q1015
EGBB 200350Z 20008KT 9999 FEW015 08/06 Q1015
EGBB 200320Z 20008KT 170V240 CAVOK 08/06 Q1015  
EGBB 200250Z 20008KT 170V240 CAVOK 08/06 Q1015  
EGBB 200220Z 20009KT 150V220 CAVOK 08/06 Q1015 REDZ 
EGBB 200150Z 21009KT 170V240 CAVOK 08/06 Q1015  
EGBB 200120Z 20009KT 170V230 9999 DZ NSC 08/06 Q1016
EGBB 200050Z 20009KT 150V240 9999 DZ NSC 08/05 Q1016
EGBB 200020Z 20010KT CAVOK 08/05 Q1016  
EGBB 192350Z 20010KT CAVOK 08/05 Q1016  
EGBB 192320Z 20010KT 9999 -RA NSC 08/05 Q1016   
EGBB 192250Z 20008KT 9999 -RA NSC 08/05 Q1016   
EGBB 192220Z 20008KT 9999 -RA SCT028 08/05 Q1016
EGBB 192150Z 20007KT CAVOK 08/05 Q1016  
EGBB 192120Z 18006KT CAVOK 08/05 Q1016  
EGBB 192050Z 18006KT CAVOK 08/04 Q1016  
EGBB 192020Z 19006KT 9999 BKN032 08/04 Q1016
EGBB 191950Z 20008KT 9999 SCT031 08/04 Q1016
EGBB 191920Z 19008KT 9999 SCT042 08/04 Q1016